Time;durP1;ratioP1;P1;durP2;ratioP2;P2;SDS_P1;SDS_P2;PMS_P1;PMS_P2;Temp;Humidity;BMP_temperature;BMP_pressure;BME280_temperature;BME280_humidity;BME280_pressure;Samples;Min_cycle;Max_cycle;Signal;HPM_P1;HPM_P2
2022/08/22 12:13:40;;;;;;;7.85;2.35;;;26.20;99.90;;;;;;5077651;27;20811;-57
2022/08/22 12:16:25;;;;;;;6.18;2.13;;;27.40;99.90;;;;;;5029524;28;20168;-58
2022/08/22 12:19:16;;;;;;;7.43;2.40;;;27.50;99.90;;;;;;5026755;28;20146;-54
2022/08/22 12:22:09;;;;;;;7.85;2.58;;;27.70;99.90;;;;;;5032190;28;20098;-55
2022/08/22 12:24:52;;;;;;;7.77;2.20;;;27.60;99.90;;;;;;5028261;28;20048;-54
2022/08/22 12:27:50;;;;;;;6.32;2.20;;;28.70;99.90;;;;;;5036767;28;20041;-56
2022/08/22 12:30:16;;;;;;;5.53;1.90;;;30.20;99.90;;;;;;5006999;28;20077;-58
2022/08/22 12:33:18;;;;;;;6.47;2.25;;;31.40;99.90;;;;;;5033448;28;20084;-54
2022/08/22 12:35:53;;;;;;;6.38;2.22;;;31.50;99.90;;;;;;5029262;28;20029;-58
2022/08/22 12:38:55;;;;;;;6.32;2.10;;;31.40;99.90;;;;;;5026272;28;20419;-57
2022/08/22 12:41:59;;;;;;;7.18;2.13;;;29.60;99.90;;;;;;5031319;28;20121;-55
2022/08/22 12:44:47;;;;;;;6.32;2.20;;;28.90;99.90;;;;;;5029201;28;20041;-57
2022/08/22 12:47:48;;;;;;;6.63;2.20;;;30.70;99.90;;;;;;5008112;28;20049;-54
2022/08/22 12:50:17;;;;;;;6.80;2.13;;;33.20;99.90;;;;;;4947612;28;20053;-57
2022/08/22 12:58:33;;;;;;;6.97;2.22;;;34.00;99.90;;;;;;5064348;27;20441;-54
2022/08/22 13:01:04;;;;;;;6.47;2.22;;;32.90;99.90;;;;;;4997465;28;20476;-56
2022/08/22 13:03:46;;;;;;;6.55;2.22;;;32.60;99.90;;;;;;5012787;28;20049;-55
2022/08/22 13:06:45;;;;;;;10.57;2.70;;;34.10;99.90;;;;;;4960518;28;297410;-54
2022/08/22 13:09:53;;;;;;;4.72;2.20;;;37.50;99.90;;;;;;5077667;27;20389;-54
2022/08/22 13:12:34;;;;;;;7.15;2.33;;;37.80;99.90;;;;;;5093572;28;20501;-57
2022/08/22 13:15:25;;;;;;;6.93;2.35;;;37.20;99.90;;;;;;5083463;28;20074;-58
2022/08/22 13:17:52;;;;;;;8.88;2.53;;;36.00;99.90;;;;;;5079999;28;20036;-57
2022/08/22 13:20:30;;;;;;;7.18;2.45;;;35.10;99.90;;;;;;5082506;28;20299;-54
2022/08/22 13:22:59;;;;;;;7.07;2.53;;;36.50;99.90;;;;;;5076394;28;20044;-56
2022/08/22 13:25:28;;;;;;;8.50;2.42;;;38.30;99.90;;;;;;5076995;28;20115;-55
2022/08/22 13:28:00;;;;;;;7.50;2.30;;;40.00;99.90;;;;;;5079672;28;20052;-57
2022/08/22 13:30:35;;;;;;;6.68;2.10;;;41.30;99.90;;;;;;5066025;28;20111;-55
2022/08/22 13:33:14;;;;;;;6.05;2.00;;;40.00;99.90;;;;;;5082575;28;20040;-56
2022/08/22 13:35:47;;;;;;;6.88;2.17;;;38.60;99.90;;;;;;5063923;28;20037;-55
2022/08/22 13:38:19;;;;;;;6.10;2.17;;;37.20;99.90;;;;;;5068673;28;20041;-58
2022/08/22 13:40:48;;;;;;;7.00;2.60;;;36.30;99.90;;;;;;5078371;28;20048;-57
2022/08/22 13:43:24;;;;;;;7.75;2.45;;;34.90;99.90;;;;;;5071466;28;20037;-52
2022/08/22 13:45:57;;;;;;;5.95;2.28;;;33.90;99.90;;;;;;5084495;28;20298;-52
2022/08/22 13:48:27;;;;;;;9.18;2.53;;;33.00;99.90;;;;;;5086621;28;20052;-52
2022/08/22 13:51:16;;;;;;;6.28;2.33;;;31.80;99.90;;;;;;5085292;28;20046;-54
2022/08/22 13:53:55;;;;;;;8.05;2.47;;;31.50;99.90;;;;;;5084432;28;20036;-55
2022/08/22 13:56:26;;;;;;;7.35;2.25;;;31.20;99.90;;;;;;5086434;28;20036;-55
2022/08/22 13:58:59;;;;;;;8.32;2.58;;;31.40;99.90;;;;;;5085474;28;20517;-53
2022/08/22 14:01:34;;;;;;;10.17;2.30;;;32.00;99.90;;;;;;5065927;28;20105;-54
2022/08/22 14:04:21;;;;;;;7.47;2.38;;;33.30;99.90;;;;;;5093079;28;20063;-54
2022/08/22 14:07:19;;;;;;;5.93;1.95;;;35.70;99.90;;;;;;5102282;28;20035;-55
2022/08/22 14:10:07;;;;;;;7.65;2.13;;;38.50;99.90;;;;;;5081176;28;20090;-57
2022/08/22 14:12:46;;;;;;;7.20;2.20;;;39.90;99.90;;;;;;5086178;28;20056;-54
2022/08/22 14:15:24;;;;;;;8.15;2.42;;;40.60;99.90;;;;;;5051177;22;20049;-86
2022/08/22 14:18:01;;;;;;;6.72;2.08;;;39.20;99.90;;;;;;4994237;28;20050;-87
2022/08/22 14:20:47;;;;;;;7.45;2.10;;;37.80;99.90;;;;;;4997208;28;20468;-87
2022/08/22 14:23:39;;;;;;;;;;;;;;;;;;;;;
2022/08/22 14:26:28;;;;;;;7.88;2.75;;;34.30;99.90;;;;;;5000790;28;20103;-87
2022/08/22 14:28:58;;;;;;;7.45;2.30;;;37.20;99.90;;;;;;5008037;28;20041;-85
2022/08/22 14:31:25;;;;;;;6.03;2.25;;;38.40;99.90;;;;;;5029030;28;20524;-87
2022/08/22 14:34:06;;;;;;;7.68;2.30;;;38.90;99.90;;;;;;5031172;28;20505;-86
2022/08/22 14:36:56;;;;;;;7.30;2.10;;;40.20;99.90;;;;;;5011743;28;20041;-87
2022/08/22 14:39:39;;;;;;;6.63;2.17;;;41.50;99.90;;;;;;4996618;28;20045;-86
2022/08/22 14:42:29;;;;;;;8.13;2.13;;;41.70;99.90;;;;;;5026974;28;20561;-87
2022/08/22 14:44:55;;;;;;;6.80;2.10;;;45.00;99.90;;;;;;5024087;28;20041;-86
2022/08/22 14:47:39;;;;;;;6.18;2.13;;;42.10;99.90;;;;;;5010515;28;20132;-89
2022/08/22 14:50:28;;;;;;;8.93;2.50;;;46.20;99.90;;;;;;5014746;28;20045;-87
2022/08/22 14:53:20;;;;;;;6.43;2.10;;;44.90;99.90;;;;;;4996697;28;20548;-86
2022/08/22 14:59:10;;;;;;;7.47;2.08;;;41.80;99.90;;;;;;5019591;28;20068;-86
2022/08/22 15:01:57;;;;;;;7.65;2.17;;;38.80;99.90;;;;;;5029867;28;20049;-85
2022/08/22 15:04:45;;;;;;;7.60;2.10;;;38.00;99.90;;;;;;5036247;28;20040;-84
2022/08/22 15:07:24;;;;;;;8.52;2.78;;;35.40;99.90;;;;;;5021095;28;20040;-86
2022/08/22 15:10:30;;;;;;;8.05;2.50;;;34.10;99.90;;;;;;4996945;28;20048;-85
2022/08/22 15:12:59;;;;;;;7.53;2.58;;;33.00;99.90;;;;;;5015674;28;20235;-84
2022/08/22 15:15:31;;;;;;;5.47;2.40;;;32.00;99.90;;;;;;5012619;28;20049;-84
2022/08/22 15:18:01;;;;;;;6.63;2.30;;;32.30;99.90;;;;;;5015179;28;20064;-85
2022/08/22 15:20:38;;;;;;;7.25;2.50;;;32.80;99.90;;;;;;5022908;28;20042;-84
2022/08/22 15:23:20;;;;;;;6.97;2.53;;;34.80;99.90;;;;;;5024380;28;20116;-85
2022/08/22 15:26:03;;;;;;;9.60;2.60;;;36.40;99.90;;;;;;5008956;28;20045;-85
2022/08/22 15:28:32;;;;;;;6.78;2.33;;;36.50;99.90;;;;;;5008185;28;20144;-83
2022/08/22 15:31:08;;;;;;;6.60;2.38;;;37.00;99.90;;;;;;5003915;28;20038;-84
2022/08/22 15:33:41;;;;;;;8.45;2.78;;;37.20;99.90;;;;;;4989862;28;20053;-85
2022/08/22 15:36:13;;;;;;;7.22;2.28;;;38.70;99.90;;;;;;4990569;28;20038;-85
2022/08/22 15:38:54;;;;;;;7.13;2.85;;;39.00;99.90;;;;;;5034385;28;20199;-85
2022/08/22 15:41:29;;;;;;;7.97;2.42;;;;;;;;;;5024847;28;20041;-85
2022/08/22 15:44:16;;;;;;;7.53;2.60;;;;;;;;;;5005336;28;20037;-85
2022/08/22 15:46:44;;;;;;;7.38;2.42;;;;;;;;;;5004620;28;20367;-86
2022/08/22 15:49:19;;;;;;;7.82;2.70;;;;;;;;;;5003949;28;20041;-85
2022/08/22 15:52:06;;;;;;;8.75;2.38;;;;;;;;;;5000585;28;20532;-85
2022/08/22 15:54:51;;;;;;;8.15;2.70;;;;;;;;;;5001440;28;20914;-85
2022/08/22 15:57:37;;;;;;;7.90;2.35;;;;;;;;;;5006842;28;20080;-85
2022/08/22 16:00:03;;;;;;;7.18;2.55;;;;;;;;;;5024983;28;20045;-85
2022/08/22 16:02:29;;;;;;;7.25;2.53;;;;;;;;;;5011559;28;20033;-83
2022/08/22 16:05:04;;;;;;;7.70;2.50;;;;;;;;;;4991568;28;20040;-85
2022/08/22 16:07:34;;;;;;;6.72;2.22;;;;;;;;;;5022836;28;20041;-84
2022/08/22 16:10:03;;;;;;;6.95;2.63;;;;;;;;;;4989950;28;20080;-85
2022/08/22 16:12:46;;;;;;;5.78;2.58;;;;;;;;;;4997354;28;20061;-87
2022/08/22 16:15:34;;;;;;;5.93;2.08;;;;;;;;;;4941051;28;20559;-84
2022/08/22 16:18:00;;;;;;;7.47;2.20;;;;;;;;;;5001886;28;20041;-85
2022/08/22 16:20:26;;;;;;;6.65;2.08;;;;;;;;;;5010516;28;20046;-85
2022/08/22 16:22:55;;;;;;;7.10;1.92;;;;;;;;;;5009542;28;20049;-85
2022/08/22 16:25:48;;;;;;;5.40;1.85;;;;;;;;;;4990842;28;20379;-85
2022/08/22 16:28:31;;;;;;;7.00;2.33;;;;;;;;;;5005213;28;20488;-85
2022/08/22 16:31:12;;;;;;;6.32;2.20;;;;;;;;;;4984190;28;20879;-86
2022/08/22 16:33:40;;;;;;;5.13;1.85;;;;;;;;;;4943488;28;20049;-85
2022/08/22 16:36:22;;;;;;;6.75;2.20;;;;;;;;;;4976322;28;20029;-84
2022/08/22 16:38:50;;;;;;;6.60;2.05;;;;;;;;;;4964898;28;20613;-83
2022/08/22 16:41:43;;;;;;;8.65;2.33;;;;;;;;;;4964432;28;20548;-82
2022/08/22 16:44:21;;;;;;;5.60;2.10;;;;;;;;;;4953190;28;20695;-82
2022/08/22 16:46:49;;;;;;;6.85;2.28;;;;;;;;;;4952248;28;20068;-82
2022/08/22 16:49:29;;;;;;;6.38;2.58;;;;;;;;;;4980509;28;20532;-82
2022/08/22 16:52:14;;;;;;;8.32;2.30;;;;;;;;;;4970311;28;20102;-82
2022/08/22 16:54:45;;;;;;;6.75;2.10;;;;;;;;;;4992386;28;20049;-84
2022/08/22 16:57:23;;;;;;;5.53;1.90;;;;;;;;;;4975096;28;20046;-84
2022/08/22 17:00:01;;;;;;;5.95;1.98;;;;;;;;;;4985750;28;20033;-83
2022/08/22 17:02:46;;;;;;;8.73;2.15;;;;;;;;;;4985538;28;20838;-83
2022/08/22 17:05:31;;;;;;;5.82;2.00;;;;;;;;;;4949380;28;20041;-83
2022/08/22 17:08:13;;;;;;;7.30;2.15;;;;;;;;;;4964228;28;20041;-83
2022/08/22 17:10:58;;;;;;;6.88;2.00;;;;;;;;;;4983142;28;20053;-83
2022/08/22 17:13:48;;;;;;;7.40;1.85;;;;;;;;;;4979183;28;20099;-83
2022/08/22 17:16:30;;;;;;;6.63;2.35;;;;;;;;;;4959983;28;20068;-84
2022/08/22 17:19:15;;;;;;;5.40;2.20;;;34.60;99.90;;;;;;4988055;28;20046;-83
2022/08/22 17:22:34;;;;;;;8.35;2.78;;;34.90;99.90;;;;;;4987440;28;20038;-88
2022/08/22 17:25:29;;;;;;;5.43;2.10;;;34.00;99.90;;;;;;4966893;28;20038;-88
2022/08/22 17:28:17;;;;;;;7.78;2.08;;;33.90;99.90;;;;;;4975294;28;20113;-85
2022/08/22 17:30:58;;;;;;;6.53;2.35;;;32.60;99.90;;;;;;4968041;28;20042;-86
2022/08/22 17:34:07;;;;;;;5.97;2.13;;;33.40;99.90;;;;;;4985694;28;20040;-83
2022/08/22 17:37:06;;;;;;;7.13;2.50;;;33.20;99.90;;;;;;5005407;28;20049;-85
2022/08/22 17:39:40;;;;;;;6.32;2.47;;;;;;;;;;4972097;28;20054;-84
2022/08/22 17:42:44;;;;;;;6.47;2.40;;;31.10;99.90;;;;;;4962867;28;20038;-83
2022/08/22 17:45:14;;;;;;;9.65;2.60;;;;;;;;;;4946300;28;20878;-83
2022/08/22 17:47:46;;;;;;;8.80;2.67;;;;;;;;;;4944821;28;20046;-83
2022/08/22 17:50:52;;;;;;;9.57;3.30;;;28.90;99.90;;;;;;4945074;28;20257;-86
2022/08/22 17:54:15;;;;;;;10.38;2.97;;;;;;;;;;4943613;28;20683;-86
2022/08/22 17:57:21;;;;;;;8.70;2.53;;;;;;;;;;4930671;28;20680;-86
2022/08/22 18:00:06;;;;;;;9.38;2.95;;;;;;;;;;4937748;28;20470;-86
2022/08/22 18:02:48;;;;;;;7.45;2.65;;;;;;;;;;4913012;28;20747;-86
2022/08/22 18:05:26;;;;;;;9.23;2.75;;;;;;;;;;4903706;28;20490;-85
2022/08/22 18:08:34;;;;;;;8.23;3.13;;;;;;;;;;4930331;28;20267;-86
2022/08/22 18:11:14;;;;;;;7.68;2.88;;;;;;;;;;4908843;28;20331;-86
2022/08/22 18:17:19;;;;;;;9.55;3.10;;;;;;;;;;4862152;28;20542;-86
2022/08/22 18:20:06;;;;;;;7.93;2.65;;;25.30;99.90;;;;;;4846684;28;20524;-85
2022/08/22 18:22:56;;;;;;;11.07;3.50;;;;;;;;;;4847040;28;20586;-86
2022/08/22 18:26:04;;;;;;;9.52;2.97;;;;;;;;;;4865536;28;20375;-85
2022/08/22 18:28:58;;;;;;;8.52;2.97;;;;;;;;;;4819469;28;20415;-86
2022/08/22 18:31:51;;;;;;;8.98;3.08;;;;;;;;;;4898603;28;20423;-86
2022/08/22 18:34:49;;;;;;;11.50;3.35;;;;;;;;;;4878688;29;20317;-86
2022/08/22 18:37:36;;;;;;;10.85;3.88;;;;;;;;;;4855903;29;20479;-82
2022/08/22 18:40:30;;;;;;;10.05;3.25;;;;;;;;;;4958263;28;20084;-81
2022/08/22 18:43:02;;;;;;;10.93;3.20;;;;;;;;;;4969806;28;20038;-83
2022/08/22 18:45:50;;;;;;;9.68;3.40;;;23.10;99.90;;;;;;4957283;28;20368;-82
2022/08/22 18:49:05;;;;;;;8.95;3.38;;;22.60;99.90;;;;;;4963780;28;20052;-85
2022/08/22 18:52:06;;;;;;;6.18;3.17;;;;;;;;;;4932676;28;20052;-85
2022/08/22 18:54:51;;;;;;;;;;;22.40;99.90;;;;;;4955900;28;20037;-86
2022/08/22 18:57:37;;;;;;;8.15;3.35;;;;;;;;;;4976295;28;20641;-82
2022/08/22 19:00:19;;;;;;;12.07;3.65;;;;;;;;;;4952924;28;20068;-82
2022/08/22 19:03:02;;;;;;;12.43;3.50;;;;;;;;;;4973300;28;20599;-82
2022/08/22 19:05:48;;;;;;;11.57;3.60;;;;;;;;;;4977896;28;20095;-82
2022/08/22 19:08:29;;;;;;;9.23;3.70;;;;;;;;;;4947205;28;20077;-83
2022/08/22 19:11:29;;;;;;;10.48;4.20;;;21.30;99.90;;;;;;4938995;28;20847;-82
2022/08/22 19:16:38;;;;;;;9.45;4.03;;;21.20;99.90;;;;;;5054792;22;20041;-52
2022/08/22 19:22:34;;;;;;;10.32;4.22;;;21.00;99.90;;;;;;5040620;28;20050;-52
2022/08/22 19:25:25;;;;;;;11.73;4.30;;;;;;;;;;5034234;28;20041;-54
2022/08/22 19:28:11;;;;;;;8.95;4.10;;;21.20;1.00;;;;;;5023082;28;20097;-54
2022/08/22 19:30:49;;;;;;;11.05;4.50;;;20.90;1.00;;;;;;4974961;28;20057;-51
2022/08/22 19:33:18;;;;;;;9.90;4.28;;;20.70;1.00;;;;;;4999072;28;20034;-53
2022/08/22 19:35:54;;;;;;;10.80;4.63;;;;;;;;;;5014995;28;20037;-53
2022/08/22 19:38:51;;;;;;;9.15;4.68;;;20.90;1.00;;;;;;5031265;28;20048;-54
2022/08/22 19:41:38;;;;;;;12.32;4.32;;;20.70;1.00;;;;;;5007161;28;20030;-54
2022/08/22 19:44:11;;;;;;;8.10;3.70;;;;;;;;;;5011393;28;20114;-60
2022/08/22 19:46:40;;;;;;;10.75;4.75;;;20.60;1.00;;;;;;5006023;22;20226;-80
2022/08/22 19:49:28;;;;;;;9.65;4.18;;;20.40;1.00;;;;;;5065988;28;20616;-80
2022/08/22 19:52:13;;;;;;;12.77;4.18;;;;;;;;;;5031237;28;20374;-81
2022/08/22 19:55:21;;;;;;;10.60;4.70;;;20.20;1.00;;;;;;5002356;28;20661;-80
2022/08/22 19:58:34;;;;;;;11.00;4.60;;;20.10;1.00;;;;;;4988854;28;20049;-80
2022/08/22 20:05:33;;;;;;;14.93;4.35;;;20.10;1.00;;;;;;4990783;28;20133;-80
2022/08/22 20:08:18;;;;;;;11.02;4.80;;;20.20;1.00;;;;;;4967739;28;20475;-80
2022/08/22 20:11:11;;;;;;;12.82;4.93;;;20.10;1.00;;;;;;4984632;28;20038;-80
2022/08/22 20:13:37;;;;;;;9.48;4.22;;;;;;;;;;5021182;28;20036;-78
2022/08/22 20:16:16;;;;;;;9.10;4.82;;;20.00;1.00;;;;;;5036433;28;20403;-78
2022/08/22 20:19:02;;;;;;;11.48;5.38;;;19.90;1.00;;;;;;5051169;28;20414;-78
2022/08/22 20:21:49;;;;;;;13.75;4.70;;;19.80;1.00;;;;;;5030699;28;20175;-78
2022/08/22 20:24:19;;;;;;;14.70;5.38;;;19.80;1.00;;;;;;5035407;28;20033;-78
2022/08/22 20:26:53;;;;;;;11.15;5.25;;;;;;;;;;5020037;28;20442;-78
2022/08/22 20:29:33;;;;;;;11.50;5.30;;;19.50;1.00;;;;;;5008971;28;20043;-78
2022/08/22 20:32:01;;;;;;;12.82;5.00;;;19.40;1.00;;;;;;5029897;28;20502;-78
2022/08/22 20:34:30;;;;;;;8.80;5.00;;;19.20;1.00;;;;;;5023644;28;20044;-78
2022/08/22 20:36:58;;;;;;;9.55;4.25;;;20.20;1.00;;;;;;5045944;28;20076;-81
2022/08/22 20:39:57;;;;;;;13.07;5.30;;;19.70;1.00;;;;;;5028699;28;20057;-77
2022/08/22 20:42:23;;;;;;;9.52;4.68;;;19.50;1.00;;;;;;5038634;28;20098;-80
2022/08/22 20:44:52;;;;;;;8.45;4.43;;;19.30;1.00;;;;;;5027695;28;20037;-80
2022/08/22 20:47:24;;;;;;;11.68;5.15;;;19.70;1.00;;;;;;5024919;28;20040;-79
2022/08/22 20:50:00;;;;;;;10.30;4.80;;;19.50;1.00;;;;;;5060449;28;20050;-79
2022/08/22 20:52:33;;;;;;;10.57;4.57;;;19.40;1.00;;;;;;5037949;28;20044;-80
2022/08/22 20:55:07;;;;;;;13.45;4.72;;;19.30;1.00;;;;;;5039918;28;20088;-79
2022/08/22 20:57:42;;;;;;;11.55;5.00;;;19.10;1.00;;;;;;5031308;28;20086;-80
2022/08/22 21:00:12;;;;;;;9.55;5.03;;;19.70;1.00;;;;;;5054740;28;20030;-80
2022/08/22 21:02:55;;;;;;;8.60;4.68;;;18.90;1.00;;;;;;5057023;28;20138;-79
2022/08/22 21:05:30;;;;;;;10.02;4.90;;;19.10;1.00;;;;;;5044000;28;20071;-79
2022/08/22 21:08:12;;;;;;;9.85;5.07;;;19.00;1.00;;;;;;5045041;28;20048;-79
2022/08/22 21:13:28;;;;;;;10.55;5.35;;;19.10;1.00;;;;;;5056405;28;20037;-79
2022/08/22 21:15:56;;;;;;;11.75;4.68;;;19.10;1.00;;;;;;5030515;28;20052;-79
2022/08/22 21:18:41;;;;;;;15.98;5.32;;;19.10;1.00;;;;;;5026557;28;20056;-79
2022/08/22 21:21:10;;;;;;;15.18;4.75;;;19.00;1.00;;;;;;5039891;28;20067;-80
2022/08/22 21:23:42;;;;;;;11.77;4.68;;;18.60;1.00;;;;;;5040224;28;20038;-79
2022/08/22 21:26:28;;;;;;;12.30;5.03;;;19.00;1.00;;;;;;5032932;28;20072;-79
2022/08/22 21:29:04;;;;;;;12.35;4.70;;;18.80;1.00;;;;;;5048690;28;20355;-79
2022/08/22 21:31:42;;;;;;;10.23;4.90;;;18.70;1.00;;;;;;5062661;28;20037;-80
2022/08/22 21:34:17;;;;;;;9.77;5.70;;;;;;;;;;5041486;28;20056;-79
2022/08/22 21:36:48;;;;;;;10.60;4.68;;;18.60;1.00;;;;;;5040978;28;20060;-79
2022/08/22 21:39:22;;;;;;;9.82;4.25;;;18.60;1.00;;;;;;5027484;28;20100;-79
2022/08/22 21:42:14;;;;;;;12.63;5.70;;;18.60;1.00;;;;;;5048518;28;20128;-79
2022/08/22 21:44:42;;;;;;;11.35;5.65;;;18.80;1.00;;;;;;5063044;28;20041;-79
2022/08/22 21:47:40;;;;;;;11.05;5.30;;;18.60;1.00;;;;;;5041117;28;20055;-80
2022/08/22 21:50:12;;;;;;;12.55;5.13;;;18.50;1.00;;;;;;5027386;28;20064;-79
2022/08/22 21:52:54;;;;;;;10.68;5.35;;;18.50;1.00;;;;;;5054926;28;20066;-79
2022/08/22 21:55:28;;;;;;;13.10;5.82;;;18.20;1.00;;;;;;5074825;28;20047;-80
2022/08/22 21:58:15;;;;;;;10.43;5.47;;;18.30;1.00;;;;;;5051018;28;20041;-80
2022/08/22 22:01:27;;;;;;;12.20;5.88;;;18.20;1.00;;;;;;5084078;28;20084;-80
2022/08/22 22:03:53;;;;;;;16.80;6.03;;;18.60;1.00;;;;;;5008102;28;20128;-79
2022/08/22 22:06:18;;;;;;;10.45;5.82;;;18.50;1.00;;;;;;5035990;28;20069;-80
2022/08/22 22:08:45;;;;;;;11.95;5.72;;;18.20;1.00;;;;;;5046799;28;20040;-80
2022/08/22 22:11:13;;;;;;;15.57;5.72;;;18.40;1.00;;;;;;5055348;28;20061;-80
2022/08/22 22:13:39;;;;;;;8.77;5.43;;;18.60;1.00;;;;;;5062549;28;20072;-80
2022/08/22 22:16:07;;;;;;;10.85;5.60;;;18.30;1.00;;;;;;5032621;28;20034;-79
2022/08/22 22:18:34;;;;;;;11.25;5.38;;;18.20;1.00;;;;;;5051943;28;20093;-80
2022/08/22 22:21:00;;;;;;;14.35;5.15;;;18.00;1.00;;;;;;5044344;28;20044;-78
2022/08/22 22:23:26;;;;;;;13.85;5.28;;;17.90;1.00;;;;;;5019226;28;20041;-77
2022/08/22 22:25:55;;;;;;;10.93;5.78;;;18.10;1.00;;;;;;5005395;28;20029;-77
2022/08/22 22:28:33;;;;;;;8.55;5.93;;;17.70;1.00;;;;;;5051652;28;20501;-77
2022/08/22 22:30:59;;;;;;;9.98;5.50;;;17.90;1.00;;;;;;5035155;28;20037;-77
2022/08/22 22:33:28;;;;;;;10.55;5.18;;;18.00;1.00;;;;;;5034796;28;20075;-78
2022/08/22 22:35:55;;;;;;;10.63;5.63;;;;;;;;;;5040176;28;20227;-80
2022/08/22 22:38:21;;;;;;;13.13;5.60;;;17.80;1.00;;;;;;5042656;28;20186;-78
2022/08/22 22:40:47;;;;;;;10.30;5.30;;;18.10;1.00;;;;;;5034510;28;20086;-78
2022/08/22 22:43:12;;;;;;;12.48;5.13;;;18.00;1.00;;;;;;5031264;28;20120;-79
2022/08/22 22:45:39;;;;;;;15.00;5.03;;;17.80;1.00;;;;;;5027067;28;20056;-79
2022/08/22 22:48:05;;;;;;;11.43;5.45;;;17.90;1.00;;;;;;5038288;28;20033;-79
2022/08/22 22:50:32;;;;;;;12.88;6.30;;;17.80;1.00;;;;;;5044809;28;20025;-78
2022/08/22 22:52:58;;;;;;;10.05;5.53;;;17.50;1.00;;;;;;5030627;28;20044;-78
2022/08/22 22:55:24;;;;;;;13.27;6.25;;;17.70;1.00;;;;;;5029421;28;20033;-78
2022/08/22 22:57:50;;;;;;;11.50;5.65;;;17.50;1.00;;;;;;5024532;28;20037;-79
2022/08/22 23:00:16;;;;;;;10.32;5.38;;;17.70;1.00;;;;;;5015960;28;20098;-79
2022/08/22 23:02:42;;;;;;;13.57;5.65;;;17.60;1.00;;;;;;5044197;28;20036;-78
2022/08/22 23:05:10;;;;;;;12.35;5.85;;;17.80;1.00;;;;;;5016973;28;20106;-78
2022/08/22 23:07:36;;;;;;;13.52;5.32;;;17.40;1.00;;;;;;5031682;28;20043;-79
2022/08/22 23:10:05;;;;;;;12.02;5.95;;;17.60;1.00;;;;;;5027879;28;20064;-78
2022/08/22 23:12:32;;;;;;;13.25;5.03;;;17.50;1.00;;;;;;5034894;28;20041;-78
2022/08/22 23:14:58;;;;;;;9.43;5.03;;;;;;;;;;5045219;28;20037;-78
2022/08/22 23:17:24;;;;;;;11.90;6.53;;;17.50;1.00;;;;;;5051956;28;20382;-78
2022/08/22 23:19:51;;;;;;;9.98;5.45;;;;;;;;;;5041940;28;20040;-78
2022/08/22 23:22:17;;;;;;;13.38;5.75;;;17.60;1.00;;;;;;5022163;28;20402;-78
2022/08/22 23:24:43;;;;;;;8.77;5.18;;;17.40;1.00;;;;;;5033603;28;20064;-78
2022/08/22 23:27:09;;;;;;;10.60;6.22;;;17.40;1.00;;;;;;5038724;28;20030;-78
2022/08/22 23:29:39;;;;;;;9.75;5.93;;;17.50;1.00;;;;;;5032747;28;20140;-78
2022/08/22 23:32:07;;;;;;;10.60;5.00;;;17.50;1.00;;;;;;5053526;28;20037;-78
2022/08/22 23:34:35;;;;;;;8.82;4.93;;;17.10;1.00;;;;;;5025821;28;20026;-78
2022/08/22 23:37:04;;;;;;;11.50;4.78;;;17.50;1.00;;;;;;5022998;28;20038;-78
2022/08/22 23:39:31;;;;;;;10.43;5.53;;;17.20;1.00;;;;;;5032505;28;20487;-78
2022/08/22 23:41:58;;;;;;;11.02;5.47;;;;;;;;;;5027431;28;20567;-78
2022/08/22 23:44:30;;;;;;;13.55;6.18;;;17.50;1.00;;;;;;5033673;28;20040;-78
2022/08/22 23:46:58;;;;;;;8.65;4.97;;;17.30;1.00;;;;;;5043519;28;20052;-78
2022/08/22 23:49:24;;;;;;;12.75;5.55;;;17.30;1.00;;;;;;5019364;28;20037;-78
2022/08/22 23:51:51;;;;;;;9.55;5.65;;;17.40;1.00;;;;;;5023591;28;20037;-78
2022/08/22 23:54:17;;;;;;;11.25;6.22;;;17.20;1.00;;;;;;5029102;28;20036;-78
2022/08/22 23:56:45;;;;;;;12.45;6.05;;;;;;;;;;5031724;28;20041;-78
2022/08/22 23:59:14;;;;;;;11.25;6.40;;;17.30;1.00;;;;;;5017256;28;20041;-78
